Time;durP1;ratioP1;P1;durP2;ratioP2;P2;SDS_P1;SDS_P2;PMS_P1;PMS_P2;Temp;Humidity;BMP_temperature;BMP_pressure;BME280_temperature;BME280_humidity;BME280_pressure;Samples;Min_cycle;Max_cycle;Signal;HPM_P1;HPM_P2
2020/12/24 00:00:07;;;;;;;4.47;2.63;;;7.50;99.90;;;;;;5011266;28;21122;-70
2020/12/24 00:02:52;;;;;;;4.80;2.60;;;7.50;99.90;;;;;;4993389;28;20632;-70
2020/12/24 00:05:40;;;;;;;5.90;2.47;;;7.50;99.90;;;;;;4997628;28;20596;-70
2020/12/24 00:08:25;;;;;;;3.23;2.50;;;7.40;99.90;;;;;;4982446;28;20735;-70
2020/12/24 00:11:09;;;;;;;3.83;2.40;;;7.40;99.90;;;;;;4989353;28;20636;-70
2020/12/24 00:13:55;;;;;;;7.57;2.60;;;7.40;99.90;;;;;;5023465;28;20599;-70
2020/12/24 00:16:40;;;;;;;3.90;2.20;;;7.30;99.90;;;;;;5008976;28;21026;-70
2020/12/24 00:19:24;;;;;;;3.77;2.57;;;7.30;99.90;;;;;;5003294;28;20744;-70
2020/12/24 00:22:08;;;;;;;3.90;2.20;;;7.20;99.90;;;;;;4996384;28;20763;-70
2020/12/24 00:24:53;;;;;;;4.80;2.20;;;7.20;99.90;;;;;;4992267;28;20627;-70
2020/12/24 00:27:38;;;;;;;7.63;2.50;;;7.10;99.90;;;;;;5024847;28;20726;-70
2020/12/24 00:30:23;;;;;;;4.97;1.93;;;7.10;99.90;;;;;;4998125;28;20711;-70
2020/12/24 00:33:11;;;;;;;6.03;2.40;;;7.10;99.90;;;;;;5007152;28;20658;-70
2020/12/24 00:35:55;;;;;;;2.60;1.97;;;7.10;99.90;;;;;;4999464;28;20643;-70
2020/12/24 00:38:40;;;;;;;4.83;2.00;;;7.00;99.90;;;;;;5006101;28;20706;-70
2020/12/24 00:41:24;;;;;;;5.67;2.57;;;6.90;99.90;;;;;;5000366;28;20641;-72
2020/12/24 00:44:09;;;;;;;2.73;1.50;;;6.80;99.90;;;;;;4993779;28;20609;-70
2020/12/24 00:46:54;;;;;;;3.87;2.20;;;6.80;99.90;;;;;;5005649;28;20703;-70
2020/12/24 00:49:38;;;;;;;4.73;2.13;;;6.90;99.90;;;;;;4998236;28;20615;-70
2020/12/24 00:52:22;;;;;;;3.57;1.90;;;6.90;99.90;;;;;;5000484;28;20638;-70
2020/12/24 00:55:07;;;;;;;4.20;1.60;;;6.90;99.90;;;;;;4993896;28;20591;-70
2020/12/24 00:57:51;;;;;;;3.50;2.23;;;6.90;99.90;;;;;;5001900;28;20667;-70
2020/12/24 01:00:36;;;;;;;3.47;1.87;;;6.90;99.90;;;;;;5008935;28;21182;-70
2020/12/24 01:03:21;;;;;;;3.17;1.60;;;6.90;99.90;;;;;;5004139;28;20655;-70
2020/12/24 01:06:05;;;;;;;1.63;1.40;;;6.90;99.90;;;;;;5013585;28;20650;-69
2020/12/24 01:08:50;;;;;;;4.13;1.93;;;6.90;99.90;;;;;;5008920;28;21283;-70
2020/12/24 01:11:34;;;;;;;4.93;1.77;;;6.90;99.90;;;;;;5005089;28;20631;-70
2020/12/24 01:14:19;;;;;;;3.43;1.70;;;6.90;99.90;;;;;;5005355;28;20592;-70
2020/12/24 01:17:03;;;;;;;3.10;2.10;;;6.90;99.90;;;;;;5007467;28;20627;-70
2020/12/24 01:19:48;;;;;;;1.90;1.50;;;6.90;99.90;;;;;;5007741;28;21260;-70
2020/12/24 01:22:33;;;;;;;2.27;1.73;;;6.90;99.90;;;;;;4992883;28;20643;-70
2020/12/24 01:25:18;;;;;;;3.50;1.90;;;6.90;99.90;;;;;;4998319;28;20583;-71
2020/12/24 01:28:02;;;;;;;4.97;1.90;;;6.90;99.90;;;;;;5000909;28;20648;-70
2020/12/24 01:30:47;;;;;;;4.33;2.00;;;6.90;99.90;;;;;;4997437;28;20648;-70
2020/12/24 01:33:32;;;;;;;2.70;1.93;;;6.90;99.90;;;;;;5007136;28;20592;-70
2020/12/24 01:36:21;;;;;;;3.30;2.20;;;6.90;99.90;;;;;;5006642;28;20592;-70
2020/12/24 01:39:06;;;;;;;2.60;1.50;;;6.90;99.90;;;;;;5009882;28;20671;-70
2020/12/24 01:41:51;;;;;;;2.17;2.00;;;6.90;99.90;;;;;;5005340;28;21108;-70
2020/12/24 01:44:35;;;;;;;2.53;2.33;;;6.90;99.90;;;;;;4993917;28;20604;-70
2020/12/24 01:47:20;;;;;;;2.13;1.93;;;6.90;99.90;;;;;;5004531;28;20626;-70
2020/12/24 01:50:08;;;;;;;4.67;2.23;;;6.90;99.90;;;;;;4997060;28;20770;-70
2020/12/24 01:52:55;;;;;;;2.67;2.10;;;6.90;99.90;;;;;;4990386;28;20756;-70
2020/12/24 01:55:39;;;;;;;2.27;2.07;;;6.90;99.90;;;;;;4999987;28;20580;-70
2020/12/24 01:58:24;;;;;;;2.90;2.00;;;6.90;99.90;;;;;;5019581;28;20663;-71
2020/12/24 02:01:08;;;;;;;4.43;2.20;;;6.90;99.90;;;;;;5002807;28;20637;-70
2020/12/24 02:03:53;;;;;;;2.23;1.80;;;6.90;99.90;;;;;;5008647;28;20647;-70
2020/12/24 02:06:42;;;;;;;1.87;1.67;;;6.80;99.90;;;;;;4994119;28;20616;-70
2020/12/24 02:09:26;;;;;;;2.70;2.10;;;6.80;99.90;;;;;;5017905;28;20659;-70
2020/12/24 02:12:11;;;;;;;5.20;2.10;;;6.80;99.90;;;;;;5007728;28;21285;-70
2020/12/24 02:14:56;;;;;;;2.40;2.20;;;6.80;99.90;;;;;;5015282;28;20588;-70
2020/12/24 02:17:41;;;;;;;3.20;1.93;;;6.80;99.90;;;;;;5009943;28;20630;-70
2020/12/24 02:20:25;;;;;;;2.90;1.87;;;6.80;99.90;;;;;;5005176;28;20599;-70
2020/12/24 02:23:11;;;;;;;1.80;1.70;;;6.70;99.90;;;;;;5005043;28;20710;-70
2020/12/24 02:25:55;;;;;;;1.73;1.63;;;6.80;99.90;;;;;;5011870;28;20611;-70
2020/12/24 02:28:40;;;;;;;3.57;2.17;;;6.80;99.90;;;;;;5022269;28;21017;-70
2020/12/24 02:31:25;;;;;;;2.00;1.60;;;6.70;99.90;;;;;;5023696;28;20713;-70
2020/12/24 02:34:09;;;;;;;2.87;2.13;;;6.70;99.90;;;;;;5008830;28;21170;-70
2020/12/24 02:36:54;;;;;;;4.63;2.10;;;6.70;99.90;;;;;;5009859;28;20586;-70
2020/12/24 02:39:38;;;;;;;2.30;1.90;;;6.80;99.90;;;;;;5008035;28;21161;-70
2020/12/24 02:42:23;;;;;;;2.33;2.13;;;6.70;99.90;;;;;;5002207;28;21000;-70
2020/12/24 02:45:08;;;;;;;3.13;2.10;;;6.70;99.90;;;;;;5013324;28;20599;-70
2020/12/24 02:47:53;;;;;;;3.80;1.87;;;6.70;99.90;;;;;;5012125;28;20659;-70
2020/12/24 02:50:45;;;;;;;2.13;1.93;;;6.70;99.90;;;;;;5003868;28;21157;-70
2020/12/24 02:53:29;;;;;;;3.13;1.90;;;6.70;99.90;;;;;;5008246;28;20623;-70
2020/12/24 02:56:14;;;;;;;2.10;1.90;;;6.60;99.90;;;;;;5005731;28;20619;-70
2020/12/24 02:58:58;;;;;;;2.00;1.80;;;6.60;99.90;;;;;;5012477;28;20771;-70
2020/12/24 03:01:43;;;;;;;1.70;1.50;;;6.60;99.90;;;;;;5008583;28;20697;-70
2020/12/24 03:04:28;;;;;;;2.87;1.80;;;6.60;99.90;;;;;;5011231;28;20591;-70
2020/12/24 03:07:13;;;;;;;2.13;1.93;;;6.60;99.90;;;;;;5008894;28;20725;-70
2020/12/24 03:09:57;;;;;;;4.60;1.87;;;6.60;99.90;;;;;;5051152;23;20855;-68
2020/12/24 03:12:42;;;;;;;2.17;1.63;;;6.60;99.90;;;;;;5047053;28;20718;-69
2020/12/24 03:15:27;;;;;;;2.10;1.50;;;6.50;99.90;;;;;;5052897;28;20597;-68
2020/12/24 03:18:11;;;;;;;2.50;1.70;;;6.50;99.90;;;;;;5052669;28;20592;-68
2020/12/24 03:20:55;;;;;;;1.70;1.60;;;6.50;99.90;;;;;;5030060;28;20585;-68
2020/12/24 03:23:40;;;;;;;1.60;1.50;;;6.50;99.90;;;;;;5030930;28;20581;-68
2020/12/24 03:26:24;;;;;;;1.57;1.47;;;6.40;99.90;;;;;;5061273;28;20621;-68
2020/12/24 03:29:09;;;;;;;2.20;1.27;;;6.40;99.90;;;;;;5049370;28;20668;-69
2020/12/24 03:31:53;;;;;;;2.43;1.50;;;6.30;99.90;;;;;;5032350;28;20721;-68
2020/12/24 03:34:38;;;;;;;1.60;1.50;;;6.30;99.90;;;;;;5034282;28;20585;-68
2020/12/24 03:37:22;;;;;;;1.57;1.47;;;6.20;99.90;;;;;;5031714;28;20846;-68
2020/12/24 03:40:07;;;;;;;1.70;1.60;;;6.30;99.90;;;;;;5032393;28;20781;-68
2020/12/24 03:42:51;;;;;;;4.40;1.40;;;6.30;99.90;;;;;;5025910;28;20716;-68
2020/12/24 03:45:36;;;;;;;1.33;1.23;;;6.40;99.90;;;;;;5025844;28;20684;-68
2020/12/24 03:48:20;;;;;;;1.57;1.37;;;6.30;99.90;;;;;;5027660;28;20638;-68
2020/12/24 03:51:12;;;;;;;2.50;1.37;;;6.30;99.90;;;;;;5031653;28;20704;-68
2020/12/24 03:53:57;;;;;;;1.40;1.30;;;6.40;99.90;;;;;;5019551;28;20952;-68
2020/12/24 03:56:41;;;;;;;1.23;1.13;;;6.30;99.90;;;;;;5028428;28;20597;-68
2020/12/24 03:59:25;;;;;;;2.03;1.30;;;6.30;99.90;;;;;;5032695;28;21009;-68
2020/12/24 04:02:10;;;;;;;2.10;1.50;;;6.30;99.90;;;;;;5031729;28;20637;-68
2020/12/24 04:04:54;;;;;;;1.60;1.50;;;6.20;99.90;;;;;;5031469;28;20593;-68
2020/12/24 04:07:39;;;;;;;1.50;1.40;;;6.20;99.90;;;;;;5035062;28;20711;-68
2020/12/24 04:10:23;;;;;;;3.90;1.63;;;6.20;99.90;;;;;;5033653;28;21036;-68
2020/12/24 04:13:08;;;;;;;1.50;1.40;;;6.10;99.90;;;;;;5023387;28;20692;-68
2020/12/24 04:15:53;;;;;;;1.40;1.20;;;6.00;99.90;;;;;;5025319;28;20672;-68
2020/12/24 04:18:38;;;;;;;2.23;1.20;;;6.00;99.90;;;;;;5031545;28;20617;-67
2020/12/24 04:21:22;;;;;;;1.07;1.03;;;6.00;99.90;;;;;;5026436;28;20645;-67
2020/12/24 04:24:07;;;;;;;1.37;1.27;;;6.00;99.90;;;;;;5018380;28;20672;-68
2020/12/24 04:26:55;;;;;;;1.30;1.20;;;5.90;99.90;;;;;;5029556;28;20677;-68
2020/12/24 04:29:40;;;;;;;1.30;1.20;;;5.90;99.90;;;;;;5031191;28;21271;-68
2020/12/24 04:32:24;;;;;;;1.00;1.00;;;5.90;99.90;;;;;;5029044;28;20785;-68
2020/12/24 04:35:08;;;;;;;1.40;1.30;;;5.90;99.90;;;;;;5032444;28;21179;-68
2020/12/24 04:37:53;;;;;;;1.63;1.33;;;5.90;99.90;;;;;;5029516;28;20784;-67
2020/12/24 04:40:37;;;;;;;1.20;1.10;;;5.80;99.90;;;;;;5027784;28;20800;-68
2020/12/24 04:43:22;;;;;;;1.23;1.13;;;5.90;99.90;;;;;;5028262;28;20636;-68
2020/12/24 04:46:09;;;;;;;1.33;1.23;;;5.90;99.90;;;;;;5032298;28;20685;-68
2020/12/24 04:48:56;;;;;;;1.10;1.00;;;5.90;99.90;;;;;;5025238;28;21171;-68
2020/12/24 04:51:44;;;;;;;1.30;1.10;;;5.90;99.90;;;;;;5028833;28;21292;-68
2020/12/24 04:54:32;;;;;;;0.97;0.97;;;5.80;99.90;;;;;;5032863;28;20582;-68
2020/12/24 04:57:16;;;;;;;1.10;1.00;;;5.70;99.90;;;;;;5028077;28;20609;-68
2020/12/24 05:00:01;;;;;;;0.90;0.90;;;5.70;99.90;;;;;;5027831;28;21376;-68
2020/12/24 05:03:09;;;;;;;1.07;1.07;;;5.70;99.90;;;;;;5023994;28;20641;-68
2020/12/24 05:05:54;;;;;;;0.90;0.90;;;5.60;99.90;;;;;;5025400;28;20922;-67
2020/12/24 05:08:38;;;;;;;1.20;1.10;;;5.40;99.90;;;;;;5032949;28;20638;-68
2020/12/24 05:11:25;;;;;;;0.90;0.90;;;5.50;99.90;;;;;;5026280;28;21004;-68
2020/12/24 05:14:24;;;;;;;1.10;1.00;;;5.50;99.90;;;;;;5030235;28;20652;-68
2020/12/24 05:17:09;;;;;;;1.07;0.90;;;5.40;99.90;;;;;;5031930;28;21375;-68
2020/12/24 05:20:05;;;;;;;1.40;0.90;;;5.40;99.90;;;;;;5028576;28;20656;-68
2020/12/24 05:23:09;;;;;;;0.67;0.67;;;5.30;99.90;;;;;;5019992;28;20808;-67
2020/12/24 05:25:53;;;;;;;0.80;0.80;;;5.30;99.90;;;;;;5033593;28;20581;-68
2020/12/24 05:28:38;;;;;;;0.73;0.73;;;5.20;99.90;;;;;;5009448;28;20658;-68
2020/12/24 05:31:34;;;;;;;0.73;0.73;;;5.30;99.90;;;;;;5023895;28;20719;-68
2020/12/24 05:34:19;;;;;;;0.80;0.80;;;5.20;99.90;;;;;;5034600;28;20574;-68
2020/12/24 05:37:14;;;;;;;1.53;0.70;;;5.20;99.90;;;;;;5034115;28;20629;-68
2020/12/24 05:40:23;;;;;;;0.60;0.60;;;5.20;99.90;;;;;;5033858;28;20692;-68
2020/12/24 05:43:07;;;;;;;0.50;0.50;;;5.20;99.90;;;;;;5027268;28;20747;-68
2020/12/24 05:46:03;;;;;;;1.57;0.60;;;5.20;99.90;;;;;;5027367;28;21226;-68
2020/12/24 05:48:48;;;;;;;0.80;0.80;;;5.20;99.90;;;;;;5036776;28;20750;-68
2020/12/24 05:51:33;;;;;;;0.73;0.73;;;5.20;99.90;;;;;;5020871;28;20716;-67
2020/12/24 05:54:18;;;;;;;0.60;0.60;;;5.20;99.90;;;;;;5031295;28;20578;-68
2020/12/24 05:57:03;;;;;;;0.73;0.67;;;5.10;99.90;;;;;;5022510;28;20601;-68
2020/12/24 05:59:47;;;;;;;0.73;0.73;;;5.20;99.90;;;;;;5021508;28;20657;-68
2020/12/24 06:02:37;;;;;;;0.70;0.70;;;5.20;99.90;;;;;;5029795;28;20644;-68
2020/12/24 06:05:29;;;;;;;0.63;0.63;;;5.10;99.90;;;;;;5032880;28;20613;-68
2020/12/24 06:08:29;;;;;;;0.70;0.70;;;5.10;99.90;;;;;;5048825;28;20732;-68
2020/12/24 06:11:23;;;;;;;0.53;0.50;;;5.10;99.90;;;;;;5029260;28;20748;-68
2020/12/24 06:14:16;;;;;;;0.80;0.70;;;5.10;99.90;;;;;;5046186;28;20602;-67
2020/12/24 06:17:03;;;;;;;0.50;0.40;;;5.00;99.90;;;;;;5069498;28;20582;-68
2020/12/24 06:19:48;;;;;;;0.80;0.80;;;5.00;99.90;;;;;;5033088;28;20652;-67
2020/12/24 06:22:33;;;;;;;0.60;0.60;;;5.00;99.90;;;;;;5034332;28;20713;-68
2020/12/24 06:25:18;;;;;;;0.70;0.70;;;5.10;99.90;;;;;;5047424;28;20600;-69
2020/12/24 06:28:06;;;;;;;0.60;0.60;;;5.00;99.90;;;;;;5036156;28;20692;-68
2020/12/24 06:30:57;;;;;;;0.70;0.70;;;5.00;99.90;;;;;;5034871;28;20649;-68
2020/12/24 06:33:42;;;;;;;0.90;0.90;;;5.00;99.90;;;;;;5048361;28;20582;-67
2020/12/24 06:36:37;;;;;;;0.93;0.70;;;5.00;99.90;;;;;;5031798;28;20597;-68
2020/12/24 06:39:40;;;;;;;0.70;0.70;;;5.00;99.90;;;;;;5038389;28;20818;-68
2020/12/24 06:42:41;;;;;;;0.83;0.83;;;5.00;99.90;;;;;;5030804;28;20989;-68
2020/12/24 06:45:29;;;;;;;1.03;0.90;;;4.90;99.90;;;;;;5028837;28;20640;-68
2020/12/24 06:48:19;;;;;;;1.20;1.10;;;4.90;99.90;;;;;;5035560;28;20638;-68
2020/12/24 06:51:03;;;;;;;0.80;0.80;;;4.90;99.90;;;;;;5033021;28;21886;-68
2020/12/24 06:53:48;;;;;;;0.97;0.97;;;4.90;99.90;;;;;;5031180;28;20586;-68
2020/12/24 06:56:34;;;;;;;1.10;1.00;;;5.00;99.90;;;;;;5029704;28;20609;-68
2020/12/24 06:59:20;;;;;;;0.80;0.80;;;5.00;99.90;;;;;;5045587;28;21324;-68
2020/12/24 07:02:05;;;;;;;1.00;1.00;;;5.00;99.90;;;;;;5029147;28;20696;-68
2020/12/24 07:04:50;;;;;;;0.90;0.90;;;5.00;99.90;;;;;;5006758;28;20601;-68
2020/12/24 07:07:43;;;;;;;0.93;0.90;;;5.00;99.90;;;;;;5016177;28;20681;-68
2020/12/24 07:10:49;;;;;;;1.07;0.90;;;5.00;99.90;;;;;;5027513;28;21316;-68
2020/12/24 07:13:38;;;;;;;1.17;1.07;;;5.00;99.90;;;;;;5028099;28;20633;-68
2020/12/24 07:16:46;;;;;;;1.70;1.60;;;5.10;99.90;;;;;;5025678;28;20812;-69
2020/12/24 07:19:33;;;;;;;1.53;1.30;;;5.10;99.90;;;;;;5031793;28;20629;-68
2020/12/24 07:22:19;;;;;;;1.57;1.40;;;5.10;99.90;;;;;;5024705;28;20645;-68
2020/12/24 07:25:04;;;;;;;1.53;1.43;;;5.20;99.90;;;;;;5024561;28;20839;-68
2020/12/24 07:27:50;;;;;;;2.43;2.00;;;5.20;99.90;;;;;;5033567;28;20754;-68
2020/12/24 07:30:35;;;;;;;1.53;1.43;;;5.20;99.90;;;;;;5016822;28;20664;-68
2020/12/24 07:33:19;;;;;;;1.70;1.60;;;5.20;99.90;;;;;;5046535;28;20633;-69
2020/12/24 07:36:07;;;;;;;1.97;1.77;;;5.20;99.90;;;;;;5028305;28;20621;-68
2020/12/24 07:38:52;;;;;;;2.30;2.10;;;5.30;99.90;;;;;;5022354;28;20715;-68
2020/12/24 07:41:40;;;;;;;2.47;2.20;;;5.30;99.90;;;;;;5031531;28;20629;-67
2020/12/24 07:44:26;;;;;;;3.17;2.70;;;5.30;99.90;;;;;;5032439;28;20620;-68
2020/12/24 07:47:14;;;;;;;4.10;2.30;;;5.30;99.90;;;;;;5025626;28;20653;-69
2020/12/24 07:49:58;;;;;;;3.03;2.73;;;5.40;99.90;;;;;;5041110;28;20717;-68
2020/12/24 07:52:46;;;;;;;2.90;2.60;;;5.30;99.90;;;;;;5029683;28;20729;-68
2020/12/24 07:55:30;;;;;;;2.93;2.50;;;5.30;99.90;;;;;;5026796;28;20661;-68
2020/12/24 07:58:18;;;;;;;3.47;3.17;;;5.30;99.90;;;;;;5028909;28;20586;-68
2020/12/24 08:01:04;;;;;;;4.50;2.67;;;5.30;99.90;;;;;;5025202;28;21257;-68
2020/12/24 08:03:56;;;;;;;4.30;3.90;;;5.40;99.90;;;;;;5042486;28;20745;-68
2020/12/24 08:06:41;;;;;;;5.40;4.63;;;5.40;99.90;;;;;;5038284;28;21193;-68
2020/12/24 08:09:25;;;;;;;4.80;4.37;;;5.40;99.90;;;;;;5027035;28;20676;-68
2020/12/24 08:12:10;;;;;;;3.80;3.40;;;5.40;99.90;;;;;;5044755;28;20638;-68
2020/12/24 08:14:54;;;;;;;3.43;2.93;;;5.50;99.90;;;;;;5031345;28;20598;-68
2020/12/24 08:17:48;;;;;;;4.23;2.93;;;5.50;99.90;;;;;;5036006;28;20647;-68
2020/12/24 08:20:46;;;;;;;2.63;2.43;;;5.60;99.90;;;;;;5035138;28;20711;-68
2020/12/24 08:23:52;;;;;;;4.00;3.10;;;5.60;99.90;;;;;;5032785;28;21179;-69
2020/12/24 08:26:38;;;;;;;3.90;2.60;;;5.60;99.90;;;;;;5021936;28;20757;-67
2020/12/24 08:29:22;;;;;;;3.63;2.93;;;5.60;99.90;;;;;;5030176;28;20678;-68
2020/12/24 08:32:07;;;;;;;3.27;2.30;;;5.60;99.90;;;;;;5026011;28;20634;-67
2020/12/24 08:34:52;;;;;;;2.93;2.27;;;5.60;99.90;;;;;;5030589;28;20625;-68
2020/12/24 08:37:37;;;;;;;3.87;2.33;;;5.60;99.90;;;;;;5021387;28;21207;-67
2020/12/24 08:40:26;;;;;;;3.40;2.43;;;5.60;99.90;;;;;;5031565;28;20622;-68
2020/12/24 08:43:13;;;;;;;2.90;2.30;;;5.70;99.90;;;;;;5029719;28;20661;-68
2020/12/24 08:45:57;;;;;;;5.63;1.93;;;5.70;99.90;;;;;;5030127;28;20722;-68
2020/12/24 08:48:42;;;;;;;3.40;2.03;;;5.80;99.90;;;;;;5030963;28;20882;-67
2020/12/24 08:51:26;;;;;;;3.40;2.67;;;5.70;99.90;;;;;;5028882;28;21064;-69
2020/12/24 08:54:11;;;;;;;3.47;2.00;;;5.60;99.90;;;;;;5028890;28;20607;-67
2020/12/24 08:56:56;;;;;;;4.13;2.70;;;5.70;99.90;;;;;;5022702;28;20597;-67
2020/12/24 08:59:40;;;;;;;4.33;2.50;;;5.70;99.90;;;;;;5034706;28;20642;-67
2020/12/24 09:02:25;;;;;;;2.70;2.13;;;5.70;99.90;;;;;;5031779;28;21617;-66
2020/12/24 09:05:09;;;;;;;4.50;2.70;;;5.60;99.90;;;;;;5039001;28;20709;-67
2020/12/24 09:07:53;;;;;;;3.47;2.90;;;5.70;99.90;;;;;;5050158;28;20653;-67
2020/12/24 09:10:38;;;;;;;4.60;2.90;;;5.70;99.90;;;;;;5036737;28;20696;-66
2020/12/24 09:13:22;;;;;;;3.00;2.60;;;5.70;99.90;;;;;;5027103;28;20630;-66
2020/12/24 09:16:10;;;;;;;4.27;2.80;;;5.70;99.90;;;;;;5034656;28;20911;-66
2020/12/24 09:19:06;;;;;;;5.10;3.13;;;5.80;99.90;;;;;;5027029;28;20661;-66
2020/12/24 09:21:58;;;;;;;3.47;2.90;;;5.90;99.90;;;;;;5031153;28;20641;-66
2020/12/24 09:24:48;;;;;;;4.33;2.70;;;5.90;99.90;;;;;;5040460;28;21046;-66
2020/12/24 09:27:42;;;;;;;5.03;3.30;;;5.90;99.90;;;;;;5029348;28;20741;-66
2020/12/24 09:30:27;;;;;;;4.20;3.53;;;6.00;99.90;;;;;;5021158;28;20904;-66
2020/12/24 09:33:12;;;;;;;4.83;3.40;;;6.00;99.90;;;;;;5028867;28;20638;-66
2020/12/24 09:35:56;;;;;;;4.00;3.60;;;6.10;99.90;;;;;;5021878;28;20633;-66
2020/12/24 09:38:41;;;;;;;4.60;3.57;;;6.10;99.90;;;;;;5026137;28;20601;-67
2020/12/24 09:41:25;;;;;;;5.20;4.00;;;6.10;99.90;;;;;;5020712;28;21121;-66
2020/12/24 09:44:11;;;;;;;4.77;3.83;;;6.10;99.90;;;;;;5013969;28;21038;-67
2020/12/24 09:46:55;;;;;;;4.77;4.20;;;6.10;99.90;;;;;;5022639;28;20602;-67
2020/12/24 09:49:39;;;;;;;4.57;4.07;;;6.20;99.90;;;;;;5028808;28;20803;-66
2020/12/24 09:52:24;;;;;;;5.10;4.40;;;6.30;99.90;;;;;;5021796;28;21448;-67
2020/12/24 09:55:08;;;;;;;5.87;4.60;;;6.30;99.90;;;;;;5034778;28;20603;-72
2020/12/24 09:57:53;;;;;;;7.27;4.83;;;6.30;99.90;;;;;;5021077;28;20741;-68
2020/12/24 10:00:37;;;;;;;6.40;4.33;;;6.30;99.90;;;;;;5024927;28;21010;-68
2020/12/24 10:03:22;;;;;;;5.57;4.93;;;6.40;99.90;;;;;;5029235;28;20681;-67
2020/12/24 10:06:06;;;;;;;6.60;5.37;;;6.40;99.90;;;;;;5018849;28;20629;-68
2020/12/24 10:08:51;;;;;;;6.20;5.47;;;6.40;99.90;;;;;;5028558;28;20862;-68
2020/12/24 10:11:35;;;;;;;7.23;5.43;;;6.40;99.90;;;;;;5025944;28;20641;-67
2020/12/24 10:14:20;;;;;;;6.40;5.27;;;6.50;99.90;;;;;;5029460;28;20597;-68
2020/12/24 10:17:05;;;;;;;6.60;5.70;;;6.50;99.90;;;;;;5026772;28;21216;-68
2020/12/24 10:19:53;;;;;;;6.50;5.50;;;6.50;99.90;;;;;;5024378;28;20739;-67
2020/12/24 10:22:37;;;;;;;8.40;5.83;;;6.50;99.90;;;;;;5031169;28;20634;-67
2020/12/24 10:25:22;;;;;;;6.70;5.70;;;6.60;99.90;;;;;;5029872;28;20744;-67
2020/12/24 10:28:06;;;;;;;8.20;5.80;;;6.60;99.90;;;;;;5023470;28;20676;-67
2020/12/24 10:30:51;;;;;;;8.60;6.90;;;6.60;99.90;;;;;;5027218;28;21411;-69
2020/12/24 10:33:36;;;;;;;6.97;6.27;;;6.70;99.90;;;;;;5030157;28;20593;-67
2020/12/24 10:36:21;;;;;;;7.97;6.20;;;6.80;99.90;;;;;;5027500;28;20691;-68
2020/12/24 10:39:09;;;;;;;7.07;5.83;;;6.70;99.90;;;;;;5025670;28;20768;-67
2020/12/24 10:41:54;;;;;;;8.90;7.33;;;6.60;99.90;;;;;;5026454;28;21016;-69
2020/12/24 10:44:38;;;;;;;8.93;6.80;;;6.80;99.90;;;;;;5022220;28;20586;-67
2020/12/24 10:47:23;;;;;;;11.20;7.20;;;6.80;99.90;;;;;;5033626;28;20605;-66
2020/12/24 10:50:08;;;;;;;11.57;8.60;;;6.80;99.90;;;;;;5034246;28;20680;-67
2020/12/24 10:52:53;;;;;;;10.27;8.20;;;6.80;99.90;;;;;;5025027;28;23247;-67
2020/12/24 10:55:37;;;;;;;15.50;8.87;;;6.80;99.90;;;;;;5027784;28;20672;-66
2020/12/24 10:58:22;;;;;;;13.87;10.13;;;6.80;99.90;;;;;;5030507;28;23689;-67
2020/12/24 11:01:17;;;;;;;15.30;10.63;;;6.80;99.90;;;;;;5025130;28;20636;-67
2020/12/24 11:04:03;;;;;;;19.77;12.13;;;6.80;99.90;;;;;;5029930;28;20610;-66
2020/12/24 11:06:47;;;;;;;18.70;12.03;;;6.90;99.90;;;;;;5027135;28;20562;-66
2020/12/24 11:09:34;;;;;;;17.50;11.77;;;6.90;99.90;;;;;;5025266;28;20789;-67
2020/12/24 11:12:19;;;;;;;17.77;11.80;;;6.80;99.90;;;;;;5030145;28;20830;-68
2020/12/24 11:15:06;;;;;;;19.83;13.80;;;6.80;99.90;;;;;;5029835;28;20589;-66
2020/12/24 11:17:50;;;;;;;19.40;12.00;;;6.90;99.90;;;;;;5045262;28;20582;-66
2020/12/24 11:20:34;;;;;;;20.70;12.37;;;6.90;99.90;;;;;;5030481;28;20729;-67
2020/12/24 11:23:19;;;;;;;19.80;12.93;;;7.00;99.90;;;;;;5023391;28;20641;-66
2020/12/24 11:26:03;;;;;;;18.43;13.03;;;7.00;99.90;;;;;;5031705;28;20704;-67
2020/12/24 11:28:48;;;;;;;21.50;13.03;;;7.00;99.90;;;;;;5043698;28;20972;-67
2020/12/24 11:31:34;;;;;;;21.17;12.40;;;7.10;99.90;;;;;;5020212;28;20637;-67
2020/12/24 11:34:19;;;;;;;16.70;11.67;;;7.10;99.90;;;;;;5025382;28;20578;-67
2020/12/24 11:37:05;;;;;;;17.40;12.27;;;7.00;99.90;;;;;;5020505;28;20576;-67
2020/12/24 11:39:50;;;;;;;18.30;13.00;;;6.90;99.90;;;;;;5027277;28;21031;-67
2020/12/24 11:42:35;;;;;;;21.30;11.90;;;6.90;99.90;;;;;;5026073;28;20637;-67
2020/12/24 11:45:20;;;;;;;17.87;13.07;;;6.90;99.90;;;;;;5027646;28;20586;-68
2020/12/24 11:48:04;;;;;;;18.43;12.37;;;6.80;99.90;;;;;;5035070;28;20606;-68
2020/12/24 11:50:49;;;;;;;18.10;12.00;;;6.90;99.90;;;;;;5041320;28;21247;-68
2020/12/24 11:53:35;;;;;;;18.40;12.20;;;7.00;99.90;;;;;;5029529;28;20610;-67
2020/12/24 11:56:22;;;;;;;18.00;12.70;;;7.00;99.90;;;;;;5028816;28;20633;-68
2020/12/24 11:59:07;;;;;;;18.37;11.90;;;7.10;99.90;;;;;;5030059;28;20756;-67
2020/12/24 12:01:51;;;;;;;16.90;11.63;;;7.10;99.90;;;;;;5045793;28;21226;-67
2020/12/24 12:04:36;;;;;;;21.30;12.40;;;7.10;99.90;;;;;;5026115;28;20597;-66
2020/12/24 12:07:20;;;;;;;18.87;12.07;;;7.10;99.90;;;;;;5031713;28;21018;-68
2020/12/24 12:10:05;;;;;;;18.60;12.23;;;7.20;99.90;;;;;;5031683;28;20704;-67
2020/12/24 12:12:49;;;;;;;17.50;11.00;;;7.20;99.90;;;;;;5020701;28;20651;-67
2020/12/24 12:15:33;;;;;;;15.13;10.40;;;7.20;99.90;;;;;;5032131;28;20692;-67
2020/12/24 12:18:18;;;;;;;19.53;12.47;;;7.20;99.90;;;;;;5035811;28;20684;-67
2020/12/24 12:21:04;;;;;;;12.57;9.40;;;7.20;99.90;;;;;;5046063;28;20609;-70
2020/12/24 12:23:48;;;;;;;14.70;10.80;;;7.40;99.90;;;;;;5046948;28;20660;-68
2020/12/24 12:26:33;;;;;;;17.67;10.60;;;7.40;99.90;;;;;;5035641;28;21168;-68
2020/12/24 12:29:17;;;;;;;16.27;10.07;;;7.30;99.90;;;;;;5028298;28;20685;-69
2020/12/24 12:32:03;;;;;;;13.10;10.33;;;7.40;99.90;;;;;;5038739;28;20745;-71
2020/12/24 12:34:48;;;;;;;13.63;9.13;;;7.40;99.90;;;;;;5024929;28;20637;-69
2020/12/24 12:37:34;;;;;;;12.43;8.77;;;7.40;99.90;;;;;;5027085;28;20699;-69
2020/12/24 12:40:19;;;;;;;12.73;9.60;;;7.40;99.90;;;;;;5022335;28;20739;-69
2020/12/24 12:43:04;;;;;;;10.90;8.87;;;7.40;99.90;;;;;;5027022;28;20658;-69
2020/12/24 12:45:48;;;;;;;15.10;9.50;;;7.60;99.90;;;;;;5024105;28;20594;-69
2020/12/24 12:48:35;;;;;;;12.37;8.63;;;7.60;99.90;;;;;;5026918;28;20589;-68
2020/12/24 12:51:20;;;;;;;13.73;9.63;;;7.60;99.90;;;;;;5042995;28;20642;-68
2020/12/24 12:54:04;;;;;;;12.13;8.80;;;7.50;99.90;;;;;;5030270;28;20578;-69
2020/12/24 12:56:51;;;;;;;11.93;9.30;;;7.50;99.90;;;;;;5044031;28;20688;-69
2020/12/24 12:59:36;;;;;;;14.00;7.97;;;7.50;99.90;;;;;;5048797;28;20745;-66
2020/12/24 13:02:20;;;;;;;7.80;6.70;;;7.50;99.90;;;;;;5028540;28;21047;-66
2020/12/24 13:05:05;;;;;;;11.47;6.33;;;7.40;99.90;;;;;;5044680;28;20602;-71
2020/12/24 13:07:49;;;;;;;9.33;6.20;;;7.40;99.90;;;;;;5029663;28;20605;-74
2020/12/24 13:10:34;;;;;;;9.73;5.90;;;7.30;99.90;;;;;;5028248;28;20828;-68
2020/12/24 13:13:18;;;;;;;8.77;6.67;;;7.30;99.90;;;;;;5016675;28;20999;-68
2020/12/24 13:16:04;;;;;;;8.70;6.30;;;7.30;99.90;;;;;;5026553;28;21151;-71
2020/12/24 13:18:48;;;;;;;9.80;6.60;;;7.30;99.90;;;;;;5041790;28;20996;-72
2020/12/24 13:21:33;;;;;;;10.00;7.33;;;7.30;99.90;;;;;;5022994;28;20641;-71
2020/12/24 13:24:17;;;;;;;13.77;7.80;;;7.30;99.90;;;;;;5030214;28;20594;-73
2020/12/24 13:27:02;;;;;;;9.63;6.60;;;7.30;99.90;;;;;;5032191;28;20681;-72
2020/12/24 13:29:47;;;;;;;10.20;6.63;;;7.30;99.90;;;;;;5036660;28;20843;-71
2020/12/24 13:32:31;;;;;;;9.40;5.30;;;7.30;99.90;;;;;;5025995;28;20693;-70
2020/12/24 13:35:17;;;;;;;6.87;5.67;;;7.30;99.90;;;;;;5028083;28;20634;-67
2020/12/24 13:38:03;;;;;;;7.97;5.77;;;7.30;99.90;;;;;;5036189;28;20609;-67
2020/12/24 13:40:47;;;;;;;7.63;5.47;;;7.30;99.90;;;;;;5022083;28;20704;-67
2020/12/24 13:43:32;;;;;;;8.20;5.30;;;7.30;99.90;;;;;;5017278;28;20609;-67
2020/12/24 13:46:16;;;;;;;6.23;5.13;;;7.20;99.90;;;;;;5028286;28;20728;-67
2020/12/24 13:49:03;;;;;;;7.40;6.10;;;7.30;99.90;;;;;;5034606;28;20660;-67
2020/12/24 13:51:54;;;;;;;6.30;4.80;;;7.30;99.90;;;;;;5034311;28;20769;-67
2020/12/24 13:54:39;;;;;;;6.70;4.77;;;7.30;99.90;;;;;;5034582;28;20664;-67
2020/12/24 13:57:24;;;;;;;6.23;3.93;;;7.30;99.90;;;;;;5037696;28;20648;-67
2020/12/24 14:00:09;;;;;;;6.30;4.33;;;7.30;99.90;;;;;;5031194;28;20851;-67
2020/12/24 14:02:54;;;;;;;6.73;4.00;;;7.30;99.90;;;;;;5024275;28;20781;-67
2020/12/24 14:05:38;;;;;;;5.77;3.97;;;7.30;99.90;;;;;;5029659;28;20712;-67
2020/12/24 14:08:23;;;;;;;5.73;4.23;;;7.30;99.90;;;;;;5026648;28;20630;-67
2020/12/24 14:11:08;;;;;;;7.40;4.33;;;7.30;99.90;;;;;;5031420;28;20660;-67
2020/12/24 14:13:52;;;;;;;4.63;3.87;;;7.30;99.90;;;;;;5027004;28;21054;-67
2020/12/24 14:16:37;;;;;;;6.60;4.80;;;7.30;99.90;;;;;;5031958;28;21254;-67
2020/12/24 14:19:21;;;;;;;7.47;4.37;;;7.20;99.90;;;;;;5032437;28;20637;-67
2020/12/24 14:22:08;;;;;;;6.00;4.10;;;7.20;99.90;;;;;;5030862;28;20700;-66
2020/12/24 14:24:52;;;;;;;5.97;4.40;;;7.20;99.90;;;;;;5045739;28;21183;-67
2020/12/24 14:27:37;;;;;;;6.73;4.47;;;7.10;99.90;;;;;;5023701;28;20663;-66
2020/12/24 14:30:21;;;;;;;5.90;4.67;;;7.20;99.90;;;;;;5033755;28;20685;-66
2020/12/24 14:33:05;;;;;;;9.10;5.10;;;7.20;99.90;;;;;;5027721;28;20646;-66